Time;durP1;ratioP1;P1;durP2;ratioP2;P2;SDS_P1;SDS_P2;PMS_P1;PMS_P2;Temp;Humidity;BMP_temperature;BMP_pressure;BME280_temperature;BME280_humidity;BME280_pressure;Samples;Min_cycle;Max_cycle;Signal;HPM_P1;HPM_P2
2021/09/21 00:02:12;;;;;;;3.10;2.80;;;21.30;99.70;;;;;;5045065;28;20528;-28
2021/09/21 00:04:46;;;;;;;3.40;3.20;;;21.40;99.10;;;;;;5045968;28;20492;-27
2021/09/21 00:07:17;;;;;;;3.00;2.80;;;21.20;99.40;;;;;;5045432;28;20495;-27
2021/09/21 00:09:48;;;;;;;3.43;3.13;;;21.20;98.90;;;;;;5045776;28;20460;-27
2021/09/21 00:12:19;;;;;;;3.37;3.00;;;21.20;99.20;;;;;;5045307;28;20428;-27
2021/09/21 00:14:50;;;;;;;3.33;3.07;;;21.10;99.50;;;;;;5045765;28;20428;-27
2021/09/21 00:17:21;;;;;;;4.47;3.23;;;21.10;98.60;;;;;;5044666;28;20423;-28
2021/09/21 00:19:53;;;;;;;3.20;3.00;;;21.00;99.50;;;;;;5045762;28;20430;-28
2021/09/21 00:22:24;;;;;;;4.20;2.97;;;21.00;99.60;;;;;;5043349;28;20470;-27
2021/09/21 00:24:55;;;;;;;4.90;3.10;;;20.90;99.90;;;;;;5043389;28;20424;-27
2021/09/21 00:27:26;;;;;;;5.50;3.90;;;20.90;99.90;;;;;;5043401;28;20494;-27
2021/09/21 00:29:57;;;;;;;4.53;3.43;;;20.80;99.90;;;;;;5044175;28;20507;-28
2021/09/21 00:32:28;;;;;;;3.90;3.50;;;20.80;99.90;;;;;;5043011;28;20482;-27
2021/09/21 00:35:01;;;;;;;3.50;3.20;;;20.80;99.90;;;;;;5045156;28;20446;-27
2021/09/21 00:37:32;;;;;;;3.53;2.93;;;20.80;99.90;;;;;;5044529;28;20967;-27
2021/09/21 00:40:03;;;;;;;4.73;3.27;;;20.70;99.90;;;;;;5043440;28;20456;-28
2021/09/21 00:42:34;;;;;;;3.07;2.87;;;20.60;99.90;;;;;;5043616;28;20428;-27
2021/09/21 00:45:10;;;;;;;3.10;2.90;;;20.60;99.90;;;;;;5042730;28;20516;-27
2021/09/21 00:47:41;;;;;;;4.40;3.20;;;20.50;99.90;;;;;;5039326;28;20507;-27
2021/09/21 00:50:14;;;;;;;4.50;3.20;;;20.60;99.90;;;;;;5043986;28;20478;-27
2021/09/21 00:52:45;;;;;;;4.10;3.50;;;20.50;99.90;;;;;;5043169;28;20452;-28
2021/09/21 00:55:16;;;;;;;3.80;2.77;;;20.40;99.90;;;;;;5044510;28;20432;-27
2021/09/21 00:57:47;;;;;;;3.37;3.07;;;20.40;99.90;;;;;;5044285;28;20424;-27
2021/09/21 01:00:20;;;;;;;4.70;3.80;;;20.40;99.90;;;;;;5043761;28;20876;-27
2021/09/21 01:02:51;;;;;;;3.53;3.33;;;20.30;99.90;;;;;;5041718;28;20438;-27
2021/09/21 01:05:24;;;;;;;3.80;3.50;;;20.30;99.90;;;;;;5044242;28;20459;-27
2021/09/21 01:07:56;;;;;;;3.73;3.30;;;20.30;99.90;;;;;;5029032;28;20478;-27
2021/09/21 01:10:29;;;;;;;3.50;3.20;;;20.30;99.90;;;;;;5044411;28;20456;-30
2021/09/21 01:13:00;;;;;;;6.40;5.90;;;20.30;99.90;;;;;;5043880;28;20457;-27
2021/09/21 01:15:31;;;;;;;5.00;4.40;;;20.20;99.90;;;;;;5042629;28;20468;-27
2021/09/21 01:18:02;;;;;;;4.33;3.93;;;20.00;99.90;;;;;;5042971;28;20423;-27
2021/09/21 01:20:35;;;;;;;3.60;3.30;;;20.00;99.90;;;;;;5044894;28;20449;-27
2021/09/21 01:23:08;;;;;;;4.67;4.20;;;19.90;99.90;;;;;;5044234;28;20591;-27
2021/09/21 01:25:39;;;;;;;6.43;5.33;;;19.90;99.90;;;;;;5043882;28;20484;-28
2021/09/21 01:28:13;;;;;;;4.77;4.47;;;19.80;99.90;;;;;;5043912;28;20500;-28
2021/09/21 01:30:44;;;;;;;3.60;3.30;;;19.70;99.90;;;;;;5043431;28;20445;-28
2021/09/21 01:33:19;;;;;;;4.50;3.27;;;19.70;99.90;;;;;;5042668;28;20449;-28
2021/09/21 01:35:50;;;;;;;3.40;3.10;;;19.70;99.90;;;;;;5043940;28;20468;-28
2021/09/21 01:38:23;;;;;;;4.90;4.07;;;19.60;99.90;;;;;;5043310;28;20553;-27
2021/09/21 01:40:54;;;;;;;6.23;4.87;;;19.50;99.90;;;;;;5043642;28;20489;-28
2021/09/21 01:43:25;;;;;;;3.83;3.50;;;19.40;99.90;;;;;;5043947;28;20424;-28
2021/09/21 01:45:56;;;;;;;4.17;3.77;;;19.40;99.90;;;;;;5044025;28;20420;-28
2021/09/21 01:48:28;;;;;;;5.03;4.50;;;19.50;99.90;;;;;;5042927;28;20475;-28
2021/09/21 01:51:01;;;;;;;4.90;4.50;;;19.50;99.90;;;;;;5042812;28;20412;-27
2021/09/21 01:53:41;;;;;;;5.47;4.97;;;19.30;99.90;;;;;;5043667;28;20450;-28
2021/09/21 01:58:59;;;;;;;3.90;3.60;;;19.20;99.90;;;;;;5040302;28;20456;-28
2021/09/21 02:01:31;;;;;;;3.30;3.00;;;19.10;99.90;;;;;;5041994;28;20863;-28
2021/09/21 02:04:05;;;;;;;3.97;3.67;;;19.00;99.90;;;;;;5042848;28;20576;-28
2021/09/21 02:06:39;;;;;;;3.63;3.33;;;18.90;99.90;;;;;;5041852;28;21094;-27
2021/09/21 02:09:15;;;;;;;3.70;3.40;;;18.90;99.90;;;;;;5043263;28;20555;-28
2021/09/21 02:11:47;;;;;;;3.60;3.30;;;18.70;99.90;;;;;;5042645;28;20453;-27
2021/09/21 02:14:19;;;;;;;3.40;2.90;;;18.60;99.90;;;;;;5043536;28;20461;-28
2021/09/21 02:16:54;;;;;;;3.83;3.43;;;18.50;99.90;;;;;;5041518;28;20465;-27
2021/09/21 02:19:25;;;;;;;4.10;3.33;;;18.40;99.90;;;;;;5043168;28;20456;-27
2021/09/21 02:21:56;;;;;;;3.70;3.40;;;18.20;99.90;;;;;;5042949;28;20911;-28
2021/09/21 02:24:29;;;;;;;5.13;3.70;;;18.10;99.90;;;;;;5042681;28;20495;-28
2021/09/21 02:27:00;;;;;;;4.00;3.60;;;18.00;99.90;;;;;;5042033;28;20453;-28
2021/09/21 02:29:30;;;;;;;4.07;3.60;;;17.90;99.90;;;;;;5043111;28;20519;-28
2021/09/21 02:32:01;;;;;;;4.30;3.87;;;17.90;99.90;;;;;;5040729;28;20477;-27
2021/09/21 02:34:32;;;;;;;4.20;3.80;;;17.80;99.90;;;;;;5042737;28;20420;-28
2021/09/21 02:37:03;;;;;;;3.80;3.50;;;17.70;99.90;;;;;;5042617;28;20428;-28
2021/09/21 02:39:37;;;;;;;5.00;4.00;;;17.70;99.90;;;;;;5043577;28;20625;-27
2021/09/21 02:42:08;;;;;;;3.93;3.30;;;17.60;99.90;;;;;;5041744;28;20477;-27
2021/09/21 02:44:39;;;;;;;4.53;4.07;;;17.70;99.90;;;;;;5042741;28;20634;-26
2021/09/21 02:47:11;;;;;;;4.00;3.67;;;17.60;99.90;;;;;;5041238;28;20492;-26
2021/09/21 02:49:42;;;;;;;4.30;3.43;;;17.60;99.90;;;;;;5029952;28;20489;-26
2021/09/21 02:52:13;;;;;;;3.40;3.10;;;17.50;99.90;;;;;;5042668;28;20480;-27
2021/09/21 02:54:46;;;;;;;3.33;3.13;;;17.50;99.90;;;;;;5043016;28;20477;-26
2021/09/21 02:57:17;;;;;;;3.30;3.00;;;17.50;99.90;;;;;;5042117;28;20460;-26
2021/09/21 02:59:48;;;;;;;5.40;3.40;;;17.40;99.90;;;;;;5042273;28;20461;-26
2021/09/21 03:02:19;;;;;;;4.33;3.70;;;17.40;99.90;;;;;;5040079;28;20453;-26
2021/09/21 03:04:54;;;;;;;5.27;4.20;;;17.40;99.90;;;;;;5032320;28;20477;-27
2021/09/21 03:07:36;;;;;;;4.13;3.73;;;17.30;99.90;;;;;;5041704;28;20453;-27
2021/09/21 03:10:22;;;;;;;3.43;3.17;;;17.20;99.90;;;;;;5043377;28;20469;-26
2021/09/21 03:13:13;;;;;;;3.50;3.20;;;17.10;99.90;;;;;;5042814;28;20456;-26
2021/09/21 03:18:33;;;;;;;4.47;4.07;;;17.00;99.90;;;;;;5044848;28;20465;-26
2021/09/21 03:21:05;;;;;;;4.43;3.60;;;17.00;99.90;;;;;;5046572;28;20453;-26
2021/09/21 03:23:38;;;;;;;4.37;3.33;;;17.10;99.90;;;;;;5046780;28;20839;-26
2021/09/21 03:26:12;;;;;;;3.50;3.13;;;17.00;99.90;;;;;;5046089;28;20453;-26
2021/09/21 03:28:44;;;;;;;4.30;3.17;;;17.00;99.90;;;;;;5029672;28;20508;-26
2021/09/21 03:31:16;;;;;;;4.20;3.77;;;17.00;99.90;;;;;;5045254;28;20529;-26
2021/09/21 03:33:49;;;;;;;3.90;3.20;;;16.90;99.90;;;;;;5042157;28;20461;-26
2021/09/21 03:36:21;;;;;;;3.83;3.30;;;16.80;99.90;;;;;;5041422;28;20512;-26
2021/09/21 03:38:53;;;;;;;3.43;3.13;;;16.80;99.90;;;;;;5044937;28;20507;-26
2021/09/21 03:41:27;;;;;;;3.30;3.10;;;16.80;99.90;;;;;;5045696;28;20477;-26
2021/09/21 03:43:59;;;;;;;3.90;3.60;;;16.80;99.90;;;;;;5046013;28;20484;-26
2021/09/21 03:46:31;;;;;;;3.73;3.37;;;16.70;99.90;;;;;;5045059;28;20465;-26
2021/09/21 03:49:03;;;;;;;4.40;3.10;;;16.80;99.90;;;;;;5045132;28;20580;-26
2021/09/21 03:51:35;;;;;;;4.03;2.97;;;16.70;99.90;;;;;;5045228;28;20963;-26
2021/09/21 03:54:09;;;;;;;3.87;3.17;;;16.60;99.90;;;;;;5045584;28;20517;-26
2021/09/21 03:56:43;;;;;;;3.50;3.20;;;16.60;99.90;;;;;;5044847;28;20452;-26
2021/09/21 03:59:15;;;;;;;4.47;3.30;;;16.60;99.90;;;;;;5044948;28;20488;-26
2021/09/21 04:01:47;;;;;;;3.80;3.37;;;16.50;99.90;;;;;;5044394;28;20536;-26
2021/09/21 04:04:20;;;;;;;2.93;2.73;;;16.50;99.90;;;;;;5045152;28;20445;-27
2021/09/21 04:06:53;;;;;;;4.90;3.47;;;16.40;99.90;;;;;;5045146;28;20449;-27
2021/09/21 04:09:24;;;;;;;6.67;3.60;;;16.40;99.90;;;;;;5044544;28;20485;-27
2021/09/21 04:11:57;;;;;;;3.40;2.87;;;16.30;99.90;;;;;;5041642;28;20453;-26
2021/09/21 04:14:31;;;;;;;3.30;3.00;;;16.40;99.90;;;;;;5045309;28;20457;-26
2021/09/21 04:17:03;;;;;;;6.80;4.03;;;16.30;99.90;;;;;;5042666;28;20460;-26
2021/09/21 04:19:35;;;;;;;3.03;2.73;;;16.20;99.90;;;;;;5042368;28;20489;-27
2021/09/21 04:22:07;;;;;;;4.00;3.43;;;16.20;99.90;;;;;;5041621;28;20872;-26
2021/09/21 04:24:38;;;;;;;4.63;3.20;;;16.20;99.90;;;;;;5044962;28;20457;-27
2021/09/21 04:27:14;;;;;;;4.93;3.40;;;16.20;99.90;;;;;;5043568;28;20476;-27
2021/09/21 04:29:45;;;;;;;3.13;2.80;;;16.10;99.90;;;;;;5044276;28;20570;-27
2021/09/21 04:32:18;;;;;;;4.03;3.30;;;16.10;99.90;;;;;;5043772;28;20433;-26
2021/09/21 04:34:50;;;;;;;4.30;3.83;;;16.10;99.90;;;;;;5041644;28;20932;-27
2021/09/21 04:37:21;;;;;;;3.53;2.87;;;16.20;99.90;;;;;;5044728;28;20507;-27
2021/09/21 04:39:52;;;;;;;5.87;3.07;;;16.20;99.90;;;;;;5044928;28;20488;-27
2021/09/21 04:42:25;;;;;;;3.63;3.23;;;16.20;99.90;;;;;;5044484;28;20450;-27
2021/09/21 04:44:58;;;;;;;3.93;3.30;;;16.20;99.90;;;;;;5044478;28;20468;-27
2021/09/21 04:47:29;;;;;;;7.23;3.10;;;16.20;99.90;;;;;;5043911;28;20452;-27
2021/09/21 04:50:00;;;;;;;3.90;3.10;;;16.10;99.90;;;;;;5044021;28;20508;-28
2021/09/21 04:52:32;;;;;;;3.20;2.90;;;16.00;99.90;;;;;;5040525;28;20602;-27
2021/09/21 04:55:05;;;;;;;4.30;3.40;;;16.00;99.90;;;;;;5044019;28;20445;-27
2021/09/21 04:57:38;;;;;;;3.63;3.10;;;15.90;99.90;;;;;;5044248;28;20488;-28
2021/09/21 05:00:10;;;;;;;3.30;3.00;;;15.80;99.90;;;;;;5044589;28;20476;-28
2021/09/21 05:02:41;;;;;;;3.70;3.40;;;15.80;99.90;;;;;;5043877;28;20449;-27
2021/09/21 05:05:13;;;;;;;4.97;3.60;;;15.70;99.90;;;;;;5044189;28;20508;-28
2021/09/21 05:07:44;;;;;;;3.80;3.40;;;15.60;99.90;;;;;;5037076;28;20454;-27
2021/09/21 05:10:16;;;;;;;4.07;3.77;;;15.60;99.90;;;;;;5043518;28;20524;-28
2021/09/21 05:12:48;;;;;;;4.40;3.30;;;15.50;99.90;;;;;;5043783;28;20457;-27
2021/09/21 05:15:19;;;;;;;3.77;3.47;;;15.40;99.90;;;;;;5043854;28;20446;-28
2021/09/21 05:17:50;;;;;;;3.30;3.03;;;15.30;99.90;;;;;;5042997;28;20536;-27
2021/09/21 05:20:21;;;;;;;3.50;3.20;;;15.20;99.90;;;;;;5043383;28;20485;-27
2021/09/21 05:22:53;;;;;;;4.40;2.90;;;15.10;99.90;;;;;;5043273;28;20450;-27
2021/09/21 05:25:24;;;;;;;3.83;3.53;;;15.00;99.90;;;;;;5044015;28;20449;-27
2021/09/21 05:27:57;;;;;;;3.90;3.07;;;15.00;99.90;;;;;;5043387;28;20453;-27
2021/09/21 05:30:28;;;;;;;4.30;3.40;;;14.90;99.90;;;;;;5043399;28;20554;-28
2021/09/21 05:32:59;;;;;;;4.50;4.10;;;14.80;99.90;;;;;;5042993;28;20753;-27
2021/09/21 05:35:30;;;;;;;3.87;3.47;;;14.70;99.90;;;;;;5037470;28;20607;-27
2021/09/21 05:38:01;;;;;;;4.10;3.70;;;14.70;99.90;;;;;;5042648;28;20500;-27
2021/09/21 05:40:32;;;;;;;4.53;4.13;;;14.60;99.90;;;;;;5043386;28;20495;-27
2021/09/21 05:43:04;;;;;;;4.03;3.73;;;14.60;99.90;;;;;;5043060;28;20461;-27
2021/09/21 05:45:35;;;;;;;4.13;3.83;;;14.50;99.90;;;;;;5042774;28;20543;-28
2021/09/21 05:48:06;;;;;;;4.33;4.03;;;14.50;99.90;;;;;;5042088;28;20473;-27
2021/09/21 05:50:37;;;;;;;4.53;3.50;;;14.50;99.90;;;;;;5043040;28;20539;-27
2021/09/21 05:53:08;;;;;;;4.60;3.70;;;14.40;99.90;;;;;;5039208;28;20461;-27
2021/09/21 05:55:39;;;;;;;4.27;3.80;;;14.30;99.90;;;;;;5043364;28;20453;-28
2021/09/21 05:58:12;;;;;;;5.07;4.27;;;14.20;99.90;;;;;;5040148;28;20974;-27
2021/09/21 06:00:43;;;;;;;5.23;3.70;;;14.20;99.90;;;;;;5043241;28;20484;-27
2021/09/21 06:03:14;;;;;;;6.70;4.47;;;14.20;99.90;;;;;;5042159;28;20446;-27
2021/09/21 06:05:48;;;;;;;5.47;4.00;;;14.10;99.90;;;;;;5043090;28;20523;-27
2021/09/21 06:08:19;;;;;;;5.40;4.60;;;14.00;99.90;;;;;;5040478;28;20454;-27
2021/09/21 06:10:51;;;;;;;4.13;3.60;;;14.00;99.90;;;;;;5042831;28;20527;-28
2021/09/21 06:13:23;;;;;;;4.80;4.40;;;14.00;99.90;;;;;;5042742;28;20781;-28
2021/09/21 06:15:55;;;;;;;4.00;3.70;;;14.00;99.90;;;;;;5043301;28;20458;-27
2021/09/21 06:18:26;;;;;;;4.50;4.10;;;14.00;99.90;;;;;;5042043;28;20511;-27
2021/09/21 06:20:57;;;;;;;4.40;4.10;;;13.90;99.90;;;;;;5042267;28;20560;-27
2021/09/21 06:23:27;;;;;;;4.90;4.07;;;13.90;99.90;;;;;;5042138;28;20483;-27
2021/09/21 06:25:58;;;;;;;6.10;4.40;;;13.90;99.90;;;;;;5042945;28;20460;-27
2021/09/21 06:28:31;;;;;;;5.07;4.33;;;13.80;99.90;;;;;;5042417;28;20609;-27
2021/09/21 06:31:03;;;;;;;8.53;3.90;;;13.80;99.90;;;;;;5042322;28;20802;-27
2021/09/21 06:33:34;;;;;;;4.60;4.17;;;13.70;99.90;;;;;;5041987;28;20453;-27
2021/09/21 06:36:05;;;;;;;5.80;4.33;;;13.70;99.90;;;;;;5042207;28;20489;-27
2021/09/21 06:38:38;;;;;;;4.10;3.70;;;13.70;99.90;;;;;;5042368;28;20492;-27
2021/09/21 06:41:09;;;;;;;4.70;4.27;;;13.60;99.90;;;;;;5042133;28;20454;-27
2021/09/21 06:43:41;;;;;;;4.20;3.80;;;13.60;99.90;;;;;;5042768;28;20468;-27
2021/09/21 06:46:12;;;;;;;4.47;4.07;;;13.60;99.90;;;;;;5042126;28;20449;-27
2021/09/21 06:48:43;;;;;;;5.37;4.70;;;13.50;99.90;;;;;;5041524;28;20461;-27
2021/09/21 06:51:14;;;;;;;5.17;4.33;;;13.50;99.90;;;;;;5041835;28;20508;-27
2021/09/21 06:53:45;;;;;;;5.90;4.37;;;13.50;99.90;;;;;;5042235;28;20515;-27
2021/09/21 06:56:16;;;;;;;4.90;4.40;;;13.40;99.90;;;;;;5041884;28;20482;-27
2021/09/21 06:58:49;;;;;;;6.70;4.70;;;13.40;99.90;;;;;;5042441;28;20461;-27
2021/09/21 07:01:20;;;;;;;5.47;4.67;;;13.40;99.90;;;;;;5041693;28;20526;-27
2021/09/21 07:03:51;;;;;;;7.80;4.80;;;13.30;99.90;;;;;;5042156;28;20453;-27
2021/09/21 07:06:22;;;;;;;5.57;5.07;;;13.30;99.90;;;;;;5041751;28;20519;-27
2021/09/21 07:08:53;;;;;;;7.13;5.97;;;13.30;99.90;;;;;;5033547;28;20454;-27
2021/09/21 07:11:24;;;;;;;5.30;4.70;;;13.30;99.90;;;;;;5042037;28;20529;-27
2021/09/21 07:13:57;;;;;;;5.73;4.93;;;13.20;99.90;;;;;;5042057;28;20536;-27
2021/09/21 07:16:28;;;;;;;5.80;5.10;;;13.20;99.90;;;;;;5041668;28;20449;-27
2021/09/21 07:18:59;;;;;;;5.20;4.70;;;13.10;99.90;;;;;;5042097;28;20464;-27
2021/09/21 07:21:29;;;;;;;8.93;5.63;;;13.10;99.90;;;;;;5041336;28;20519;-27
2021/09/21 07:24:00;;;;;;;5.60;5.10;;;13.10;99.90;;;;;;5042112;28;20457;-27
2021/09/21 07:26:31;;;;;;;4.63;4.23;;;13.10;99.90;;;;;;5042154;28;20457;-27
2021/09/21 07:29:04;;;;;;;5.50;4.70;;;13.00;99.90;;;;;;5042299;28;20441;-27
2021/09/21 07:31:35;;;;;;;5.40;4.90;;;13.00;99.90;;;;;;5040852;28;20535;-27
2021/09/21 07:34:06;;;;;;;7.07;5.30;;;13.00;99.90;;;;;;5041942;28;20568;-27
2021/09/21 07:36:37;;;;;;;4.90;4.30;;;12.90;99.90;;;;;;5024677;28;20816;-27
2021/09/21 07:39:08;;;;;;;12.33;5.43;;;12.90;99.90;;;;;;5042164;28;20460;-27
2021/09/21 07:41:39;;;;;;;5.27;4.77;;;12.80;99.90;;;;;;5041490;28;20552;-27
2021/09/21 07:44:12;;;;;;;5.70;5.20;;;12.80;99.90;;;;;;5042253;28;20480;-27
2021/09/21 07:46:43;;;;;;;5.00;4.60;;;12.70;99.90;;;;;;5040998;28;20441;-27
2021/09/21 07:49:14;;;;;;;7.50;5.30;;;12.70;99.90;;;;;;5041982;28;21104;-27
2021/09/21 07:51:45;;;;;;;5.13;4.63;;;12.60;99.90;;;;;;5034627;28;20485;-27
2021/09/21 07:54:16;;;;;;;6.90;5.10;;;12.60;99.90;;;;;;5041989;28;20485;-27
2021/09/21 07:56:47;;;;;;;5.00;4.47;;;12.70;99.90;;;;;;5041394;28;20457;-27
2021/09/21 07:59:20;;;;;;;5.87;5.27;;;12.70;99.90;;;;;;5042146;28;20881;-27
2021/09/21 08:01:51;;;;;;;8.17;5.40;;;12.60;99.90;;;;;;5042936;28;20481;-27
2021/09/21 08:04:23;;;;;;;5.00;4.50;;;12.60;99.90;;;;;;5044455;28;20449;-28
2021/09/21 08:06:54;;;;;;;5.13;4.63;;;12.50;99.90;;;;;;5044952;28;20449;-27
2021/09/21 08:09:25;;;;;;;5.63;4.57;;;12.40;99.90;;;;;;5045631;28;20997;-27
2021/09/21 08:11:56;;;;;;;5.83;4.63;;;12.40;99.90;;;;;;5044640;28;20500;-28
2021/09/21 08:14:29;;;;;;;7.93;5.20;;;12.40;99.90;;;;;;5045581;28;20580;-27
2021/09/21 08:17:00;;;;;;;5.30;4.80;;;12.30;99.90;;;;;;5043766;28;20484;-27
2021/09/21 08:19:31;;;;;;;4.93;4.43;;;12.30;99.90;;;;;;5045314;28;20475;-27
2021/09/21 08:22:02;;;;;;;6.27;5.67;;;12.20;99.90;;;;;;5044671;28;20491;-27
2021/09/21 08:24:33;;;;;;;9.73;5.60;;;12.20;99.90;;;;;;5044903;28;20457;-27
2021/09/21 08:27:04;;;;;;;5.10;4.60;;;12.20;99.90;;;;;;5045077;28;20438;-27
2021/09/21 08:29:37;;;;;;;5.60;4.70;;;12.20;99.90;;;;;;5045228;28;20449;-27
2021/09/21 08:32:08;;;;;;;5.00;4.60;;;12.10;99.90;;;;;;5043399;28;20603;-27
2021/09/21 08:34:39;;;;;;;6.13;4.80;;;12.10;99.90;;;;;;5044694;28;20445;-27
2021/09/21 08:37:10;;;;;;;8.70;5.70;;;12.10;99.90;;;;;;5044627;28;20485;-27
2021/09/21 08:39:41;;;;;;;6.23;5.10;;;12.10;99.90;;;;;;5044970;28;20471;-27
2021/09/21 08:42:13;;;;;;;6.30;5.50;;;12.10;99.90;;;;;;5044500;28;20773;-27
2021/09/21 08:44:46;;;;;;;7.60;4.90;;;12.10;99.90;;;;;;5044829;28;20441;-27
2021/09/21 08:47:17;;;;;;;6.00;4.90;;;12.20;99.90;;;;;;5043320;28;20514;-27
2021/09/21 08:49:48;;;;;;;5.70;5.20;;;12.10;99.90;;;;;;5044930;28;20461;-27
2021/09/21 08:52:20;;;;;;;7.20;5.40;;;12.10;99.90;;;;;;5043661;28;20481;-27
2021/09/21 08:54:50;;;;;;;5.87;5.37;;;12.10;99.90;;;;;;5044563;28;20449;-28
2021/09/21 08:57:22;;;;;;;5.80;5.30;;;12.00;99.90;;;;;;5044206;28;20830;-27
2021/09/21 08:59:56;;;;;;;6.73;5.47;;;11.90;99.90;;;;;;5044651;28;20555;-27
2021/09/21 09:02:27;;;;;;;6.07;5.47;;;11.90;99.90;;;;;;5043254;28;20485;-27
2021/09/21 09:05:02;;;;;;;6.67;5.53;;;12.00;99.90;;;;;;5043833;28;20485;-27
2021/09/21 09:07:37;;;;;;;6.00;5.40;;;12.00;99.90;;;;;;5028678;28;20925;-27
2021/09/21 09:10:09;;;;;;;6.57;5.40;;;12.00;99.90;;;;;;5044382;28;20477;-27
2021/09/21 09:12:40;;;;;;;6.73;5.83;;;11.90;99.90;;;;;;5043826;28;20480;-27
2021/09/21 09:15:16;;;;;;;6.23;5.33;;;11.80;99.90;;;;;;5044363;28;20556;-27
2021/09/21 09:17:57;;;;;;;5.63;5.07;;;11.90;99.90;;;;;;5039984;28;20453;-27
2021/09/21 09:20:39;;;;;;;7.37;5.90;;;11.90;99.90;;;;;;5044119;28;20453;-27
2021/09/21 09:23:11;;;;;;;6.50;5.87;;;11.90;99.90;;;;;;5042936;28;20458;-27
2021/09/21 09:25:43;;;;;;;5.97;5.33;;;11.90;99.90;;;;;;5044151;28;20484;-27
2021/09/21 09:28:19;;;;;;;8.10;5.40;;;11.80;99.90;;;;;;5034289;28;20493;-27
2021/09/21 09:30:53;;;;;;;6.00;5.40;;;11.80;99.90;;;;;;5043691;28;20513;-28
2021/09/21 09:33:24;;;;;;;6.40;5.80;;;11.80;99.90;;;;;;5042546;28;20452;-27
2021/09/21 09:35:55;;;;;;;6.20;5.60;;;11.70;99.90;;;;;;5043666;28;20453;-27
2021/09/21 09:38:26;;;;;;;5.40;4.90;;;11.70;99.90;;;;;;5043608;28;20489;-27
2021/09/21 09:40:59;;;;;;;5.63;5.00;;;11.60;99.90;;;;;;5043497;28;20458;-27
2021/09/21 09:43:30;;;;;;;7.57;6.00;;;11.60;99.90;;;;;;5043605;28;20453;-27
2021/09/21 09:46:03;;;;;;;7.53;6.10;;;11.60;99.90;;;;;;5042902;28;20477;-28
2021/09/21 09:48:34;;;;;;;7.33;6.10;;;11.60;99.90;;;;;;5043317;28;20456;-27
2021/09/21 09:51:05;;;;;;;7.33;5.93;;;11.60;99.90;;;;;;5027712;28;20572;-27
2021/09/21 09:53:37;;;;;;;6.73;6.13;;;11.60;99.90;;;;;;5042974;28;20457;-27
2021/09/21 09:56:08;;;;;;;7.67;6.27;;;11.60;99.90;;;;;;5043488;28;20492;-27
2021/09/21 09:58:39;;;;;;;7.07;5.20;;;11.60;99.90;;;;;;5043300;28;20473;-27
2021/09/21 10:01:11;;;;;;;6.27;5.63;;;11.60;99.90;;;;;;5043376;28;20476;-27
2021/09/21 10:03:43;;;;;;;7.17;6.47;;;11.60;99.90;;;;;;5043164;28;20564;-27
2021/09/21 10:06:14;;;;;;;7.30;5.70;;;11.60;99.90;;;;;;5043012;28;20525;-27
2021/09/21 10:08:46;;;;;;;7.20;6.50;;;11.50;99.90;;;;;;5043460;28;20454;-27
2021/09/21 10:11:17;;;;;;;6.93;6.20;;;11.50;99.90;;;;;;5043261;28;20457;-27
2021/09/21 10:13:48;;;;;;;6.20;5.60;;;11.40;99.90;;;;;;5042315;28;20458;-27
2021/09/21 10:16:21;;;;;;;9.97;7.10;;;11.40;99.90;;;;;;5042516;28;20456;-27
2021/09/21 10:18:56;;;;;;;7.90;6.53;;;11.40;99.90;;;;;;5042753;28;20461;-27
2021/09/21 10:21:37;;;;;;;7.20;6.40;;;11.50;99.90;;;;;;5038053;28;20556;-27
2021/09/21 10:24:10;;;;;;;7.53;6.10;;;11.50;99.90;;;;;;5039655;28;20460;-27
2021/09/21 10:26:43;;;;;;;6.93;6.23;;;11.40;99.90;;;;;;5043235;28;20453;-27
2021/09/21 10:29:15;;;;;;;6.73;6.03;;;11.40;99.90;;;;;;5042638;28;20516;-27
2021/09/21 10:31:57;;;;;;;7.47;6.67;;;11.30;99.90;;;;;;5041477;28;20485;-27
2021/09/21 10:34:39;;;;;;;6.97;6.30;;;11.30;99.90;;;;;;5043021;28;20487;-27
2021/09/21 10:37:10;;;;;;;6.53;5.80;;;11.30;99.90;;;;;;5042968;28;20524;-27
2021/09/21 10:39:41;;;;;;;9.57;6.40;;;11.30;99.90;;;;;;5027441;28;20525;-27
2021/09/21 10:42:14;;;;;;;7.27;6.17;;;11.30;99.90;;;;;;5042519;28;20453;-27
2021/09/21 10:44:53;;;;;;;7.83;6.07;;;11.30;99.90;;;;;;5042237;28;20476;-27
2021/09/21 10:47:27;;;;;;;10.60;7.33;;;11.30;99.90;;;;;;5041492;28;20445;-27
2021/09/21 10:50:12;;;;;;;8.03;6.60;;;11.30;99.90;;;;;;5042941;28;20455;-28
2021/09/21 10:52:43;;;;;;;8.43;7.63;;;11.30;99.90;;;;;;5042898;28;20560;-27
2021/09/21 10:55:17;;;;;;;9.10;7.60;;;11.30;99.90;;;;;;5042404;28;20468;-27
2021/09/21 10:57:49;;;;;;;7.30;6.23;;;11.30;99.90;;;;;;5042598;28;20452;-27
2021/09/21 11:00:21;;;;;;;8.27;7.40;;;11.30;99.90;;;;;;5042498;28;20537;-27
2021/09/21 11:02:56;;;;;;;7.17;6.30;;;11.30;99.90;;;;;;5040857;28;20506;-27
2021/09/21 11:05:27;;;;;;;7.93;6.90;;;11.30;99.90;;;;;;5038846;28;20483;-27
2021/09/21 11:08:00;;;;;;;8.13;6.30;;;11.20;99.90;;;;;;5037638;28;20449;-27
2021/09/21 11:10:33;;;;;;;11.00;7.33;;;11.20;99.90;;;;;;5037779;28;20520;-27
2021/09/21 11:13:09;;;;;;;7.27;6.23;;;11.20;99.90;;;;;;5041950;28;20492;-28
2021/09/21 11:15:40;;;;;;;7.60;6.90;;;11.20;99.90;;;;;;5041977;28;20477;-27
2021/09/21 11:18:15;;;;;;;8.63;6.60;;;11.20;99.90;;;;;;5041029;28;20218;-28
2021/09/21 11:20:48;;;;;;;8.10;7.03;;;11.10;99.90;;;;;;5042498;28;20586;-27
2021/09/21 11:23:20;;;;;;;7.43;6.73;;;11.10;99.90;;;;;;5040549;28;20442;-27
2021/09/21 11:25:52;;;;;;;8.20;6.37;;;11.10;99.90;;;;;;5042687;28;20480;-27
2021/09/21 11:28:23;;;;;;;7.27;6.57;;;11.10;99.90;;;;;;5042190;28;20457;-27
2021/09/21 11:30:57;;;;;;;8.47;7.00;;;11.10;99.90;;;;;;5036923;28;20456;-27
2021/09/21 11:33:31;;;;;;;7.55;6.85;;;11.10;99.90;;;;;;5041205;28;20508;-27
2021/09/21 11:36:06;;;;;;;7.73;7.03;;;11.10;99.90;;;;;;5035987;28;20209;-27
2021/09/21 11:38:39;;;;;;;7.10;6.40;;;11.10;99.90;;;;;;5046027;28;20571;-27
2021/09/21 11:41:11;;;;;;;12.60;9.07;;;11.10;99.90;;;;;;5037052;28;20468;-27
2021/09/21 11:43:42;;;;;;;7.30;6.60;;;11.00;99.90;;;;;;5046296;28;20460;-27
2021/09/21 11:46:31;;;;;;;7.30;6.43;;;11.00;99.90;;;;;;5044558;28;21039;-27
2021/09/21 11:49:04;;;;;;;9.30;7.33;;;11.00;99.90;;;;;;5045607;28;20453;-27
2021/09/21 11:51:38;;;;;;;7.10;6.20;;;11.00;99.90;;;;;;5046168;28;20910;-27
2021/09/21 11:54:09;;;;;;;8.30;6.77;;;11.00;99.90;;;;;;5045761;28;20517;-27
2021/09/21 11:56:43;;;;;;;8.70;6.97;;;11.00;99.90;;;;;;5045640;28;21060;-27
2021/09/21 11:59:17;;;;;;;7.53;6.60;;;11.00;99.90;;;;;;5046681;28;20441;-27
2021/09/21 12:01:52;;;;;;;7.30;6.18;;;10.90;99.90;;;;;;5044158;28;20457;-27
2021/09/21 12:04:25;;;;;;;10.87;6.90;;;10.90;99.90;;;;;;5044813;28;20209;-27
2021/09/21 12:06:57;;;;;;;8.60;6.57;;;10.90;99.90;;;;;;5045546;28;20475;-27
2021/09/21 12:09:29;;;;;;;6.60;6.00;;;10.90;99.90;;;;;;5044731;28;20515;-27
2021/09/21 12:12:00;;;;;;;9.47;7.30;;;10.90;99.90;;;;;;5044902;28;20480;-27
2021/09/21 12:14:31;;;;;;;11.77;7.27;;;10.90;99.90;;;;;;5045617;28;20560;-27
2021/09/21 12:17:04;;;;;;;8.43;7.50;;;10.90;99.90;;;;;;5044458;28;20485;-27
2021/09/21 12:19:44;;;;;;;7.93;6.87;;;10.90;99.90;;;;;;5045183;28;20218;-27
2021/09/21 12:22:21;;;;;;;8.00;6.63;;;11.00;99.90;;;;;;5044945;28;20552;-27
2021/09/21 12:24:53;;;;;;;8.50;7.70;;;11.00;99.90;;;;;;5045365;28;20456;-27
2021/09/21 12:27:27;;;;;;;7.63;6.83;;;11.10;99.90;;;;;;5045513;28;20465;-27
2021/09/21 12:29:59;;;;;;;8.73;6.97;;;11.00;99.90;;;;;;5045783;28;20453;-27
2021/09/21 12:32:30;;;;;;;8.67;7.77;;;11.00;99.90;;;;;;5042201;28;20775;-27
2021/09/21 12:35:05;;;;;;;12.40;8.03;;;11.10;99.90;;;;;;5043622;28;20456;-26
2021/09/21 12:37:41;;;;;;;12.23;7.77;;;11.10;99.90;;;;;;5044716;28;20496;-27
2021/09/21 12:40:14;;;;;;;9.00;7.97;;;11.20;99.90;;;;;;5043496;28;20520;-27
2021/09/21 12:42:45;;;;;;;9.60;8.10;;;11.20;99.90;;;;;;5045325;28;20453;-27
2021/09/21 12:45:16;;;;;;;9.80;7.83;;;11.10;99.90;;;;;;5045391;28;20462;-27
2021/09/21 12:47:47;;;;;;;8.07;7.27;;;11.10;99.90;;;;;;5043516;28;20457;-27
2021/09/21 12:50:22;;;;;;;9.60;7.23;;;11.00;99.90;;;;;;5045491;28;20445;-27
2021/09/21 12:52:54;;;;;;;8.77;7.20;;;11.00;99.90;;;;;;5045053;28;20477;-27
2021/09/21 12:55:33;;;;;;;9.43;7.60;;;11.00;99.90;;;;;;5044872;28;20461;-27
2021/09/21 12:58:05;;;;;;;8.23;7.13;;;10.90;99.90;;;;;;5029662;28;20612;-27
2021/09/21 13:00:37;;;;;;;8.80;7.90;;;10.90;99.90;;;;;;5045380;28;20449;-27
2021/09/21 13:03:09;;;;;;;8.90;7.90;;;10.90;99.90;;;;;;5043911;28;20453;-27
2021/09/21 13:08:31;;;;;;;8.20;6.40;;;10.90;99.90;;;;;;5043376;28;20465;-27
2021/09/21 13:11:04;;;;;;;9.52;7.30;;;10.80;99.90;;;;;;5044872;28;20453;-27
2021/09/21 13:13:35;;;;;;;9.60;7.80;;;10.80;99.90;;;;;;5044482;28;20276;-27
2021/09/21 13:16:07;;;;;;;9.15;6.80;;;10.70;99.90;;;;;;5044166;28;20666;-27
2021/09/21 13:18:40;;;;;;;8.10;6.63;;;10.70;99.90;;;;;;5044091;28;20242;-27
2021/09/21 13:21:12;;;;;;;12.80;7.13;;;10.70;99.90;;;;;;5044657;28;20452;-27